createdAt,value
2023-03-18T00:02:49.076Z,101699.28
2023-03-18T00:07:50.443Z,101690.63
2023-03-18T00:12:49.517Z,101691.53
2023-03-18T00:17:49.692Z,101692.63
2023-03-18T00:22:51.199Z,101690.06
2023-03-18T00:27:50.148Z,101684.81
2023-03-18T00:32:49.182Z,101675.28
2023-03-18T00:37:49.691Z,101664.75
2023-03-18T00:42:50.710Z,101671.78
2023-03-18T00:47:50.363Z,101662.25
2023-03-18T00:52:50.512Z,101656.16
2023-03-18T00:57:49.303Z,101649.09
2023-03-18T01:02:49.359Z,101650.00
2023-03-18T01:07:48.478Z,101648.19
2023-03-18T01:12:48.652Z,101638.56
2023-03-18T01:17:48.192Z,101632.75
2023-03-18T01:22:47.790Z,101628.63
2023-03-18T01:27:48.465Z,101631.09
2023-03-18T01:32:48.001Z,101637.09
2023-03-18T01:37:47.251Z,101628.28
2023-03-18T01:42:57.284Z,101634.38
2023-03-18T01:47:58.989Z,101632.34
2023-03-18T01:53:01.222Z,101634.06
2023-03-18T01:58:04.842Z,101629.66
2023-03-18T02:03:05.015Z,101627.81
2023-03-18T02:08:03.854Z,101624.25
2023-03-18T02:13:06.868Z,101627.63
2023-03-18T02:18:13.081Z,101627.66
2023-03-18T02:23:36.797Z,101626.25
2023-03-18T02:28:40.005Z,101635.88
2023-03-18T02:33:42.106Z,101641.09
2023-03-18T02:38:43.168Z,101637.72
2023-03-18T02:43:46.250Z,101642.88
2023-03-18T02:48:47.424Z,101636.69
2023-03-18T02:53:46.480Z,101634.00
2023-03-18T02:58:47.086Z,101634.06
2023-03-18T03:03:47.563Z,101640.19
2023-03-18T03:08:46.959Z,101635.91
2023-03-18T03:13:48.164Z,101638.47
2023-03-18T03:18:48.630Z,101632.34
2023-03-18T03:23:48.685Z,101642.81
2023-03-18T03:28:49.080Z,101634.97
2023-03-18T03:33:47.939Z,101639.31
2023-03-18T03:38:47.362Z,101647.16
2023-03-18T03:43:46.178Z,101649.75
2023-03-18T03:48:48.032Z,101650.63
2023-03-18T03:53:48.158Z,101653.16
2023-03-18T03:58:47.803Z,101664.56
2023-03-18T04:03:48.656Z,101667.25
2023-03-18T04:08:49.072Z,101659.38
2023-03-18T04:13:47.992Z,101678.63
2023-03-18T04:18:48.318Z,101673.38
2023-03-18T04:23:47.441Z,101671.81
2023-03-18T04:28:47.512Z,101683.03
2023-03-18T04:33:49.548Z,101681.28
2023-03-18T04:38:48.547Z,101689.03
2023-03-18T04:43:48.950Z,101687.25
2023-03-18T04:48:49.354Z,101693.25
2023-03-18T04:53:49.076Z,101696.72
2023-03-18T04:58:48.344Z,101701.00
2023-03-18T05:03:53.507Z,101699.25
2023-03-18T05:08:55.189Z,101703.13
2023-03-18T05:13:56.150Z,101709.88
2023-03-18T05:19:01.881Z,101710.00
2023-03-18T05:24:01.301Z,101720.00
2023-03-18T05:29:06.339Z,101718.50
2023-03-18T05:34:14.261Z,101745.28
2023-03-18T05:39:15.059Z,101744.56
2023-03-18T05:44:14.833Z,101736.69
2023-03-18T05:49:16.193Z,101729.63
2023-03-18T05:54:25.451Z,101723.13
2023-03-18T05:59:31.968Z,101718.72
2023-03-18T06:04:38.064Z,101723.69
2023-03-18T06:09:38.666Z,101729.78
2023-03-18T06:14:41.157Z,101734.53
2023-03-18T06:19:46.264Z,101738.09
2023-03-18T06:24:47.830Z,101735.97
2023-03-18T06:29:49.005Z,101735.47
2023-03-18T06:34:52.669Z,101743.78
2023-03-18T06:39:52.087Z,101745.91
2023-03-18T06:44:51.953Z,101745.47
2023-03-18T06:50:02.485Z,101744.13
2023-03-18T06:55:07.643Z,101748.59
2023-03-18T07:00:11.998Z,101757.19
2023-03-18T07:05:13.764Z,101750.22
2023-03-18T07:10:21.043Z,101751.19
2023-03-18T07:15:21.873Z,101742.97
2023-03-18T07:20:24.902Z,101735.84
2023-03-18T07:25:23.873Z,101742.75
2023-03-18T07:30:23.096Z,101747.31
2023-03-18T07:35:27.635Z,101739.75
2023-03-18T07:40:26.595Z,101741.41
2023-03-18T07:45:25.726Z,101733.88
2023-03-18T07:50:26.466Z,101729.63
2023-03-18T07:55:25.479Z,101742.50
2023-03-18T08:00:24.541Z,101744.19
2023-03-18T08:05:23.324Z,101753.66
2023-03-18T08:10:24.093Z,101747.94
2023-03-18T08:15:23.839Z,101741.47
2023-03-18T08:20:23.231Z,101750.22
2023-03-18T08:25:31.774Z,101748.03
2023-03-18T08:30:32.776Z,101751.72
2023-03-18T08:35:32.085Z,101748.94
2023-03-18T08:40:34.887Z,101735.00
2023-03-18T08:45:34.132Z,101735.03
2023-03-18T08:50:33.195Z,101735.25
2023-03-18T08:55:35.843Z,101741.69
2023-03-18T09:00:36.589Z,101739.25
2023-03-18T09:05:36.842Z,101738.09
2023-03-18T09:10:37.142Z,101734.00
2023-03-18T09:15:35.946Z,101738.88
2023-03-18T09:20:34.858Z,101720.47
2023-03-18T09:25:34.476Z,101719.03
2023-03-18T09:30:35.311Z,101719.97
2023-03-18T09:35:34.684Z,101702.34
2023-03-18T09:40:37.972Z,101707.94
2023-03-18T09:45:49.512Z,101709.97
2023-03-18T09:50:57.551Z,101697.41
2023-03-18T09:56:00.958Z,101696.88
2023-03-18T10:01:03.246Z,101691.66
2023-03-18T10:06:07.017Z,101687.53
2023-03-18T10:11:12.938Z,101680.25
2023-03-18T10:16:19.612Z,101677.25
2023-03-18T10:21:28.336Z,101670.91
2023-03-18T10:26:33.458Z,101665.97
2023-03-18T10:31:49.403Z,101650.97
2023-03-18T10:36:54.225Z,101650.84
2023-03-18T10:41:55.274Z,101641.25
2023-03-18T10:47:01.251Z,101635.03
2023-03-18T10:52:07.860Z,101629.81
2023-03-18T10:57:06.834Z,101628.16
2023-03-18T11:02:17.209Z,101620.19
2023-03-18T11:07:20.918Z,101626.44
2023-03-18T11:12:24.395Z,101623.03
2023-03-18T11:17:29.349Z,101619.38
2023-03-18T11:22:30.268Z,101622.19
2023-03-18T11:27:39.973Z,101614.75
2023-03-18T11:32:52.816Z,101612.09
2023-03-18T11:37:52.401Z,101600.28
2023-03-18T11:42:57.237Z,101605.41
2023-03-18T11:47:58.501Z,101599.22
2023-03-18T11:59:21.102Z,101584.47
2023-03-18T12:04:48.852Z,101580.09
2023-03-18T12:09:55.569Z,101584.25
2023-03-18T12:15:03.193Z,101578.91
2023-03-18T12:20:40.489Z,101573.94
2023-03-18T12:25:58.169Z,101557.06
2023-03-18T12:31:14.158Z,101563.06
2023-03-18T12:36:23.730Z,101558.00
2023-03-18T12:41:47.254Z,101554.38
2023-03-18T12:46:50.883Z,101555.31
2023-03-18T12:51:57.497Z,101546.44
2023-03-18T12:57:03.662Z,101549.59
2023-03-18T13:02:20.277Z,101551.63
2023-03-18T13:07:27.646Z,101542.69
2023-03-18T13:12:31.962Z,101540.16
2023-03-18T13:17:34.193Z,101534.69
2023-03-18T13:22:57.500Z,101516.03
2023-03-18T13:28:23.084Z,101515.22
2023-03-18T13:34:04.057Z,101522.91
2023-03-18T13:39:20.669Z,101523.31
2023-03-18T13:44:26.125Z,101519.06
2023-03-18T13:49:29.732Z,101528.59
2023-03-18T13:54:36.082Z,101507.16
2023-03-18T13:59:46.946Z,101529.09
2023-03-18T14:04:52.013Z,101529.63
2023-03-18T14:10:18.936Z,101533.03
2023-03-18T14:15:38.943Z,101542.88
2023-03-18T14:20:45.020Z,101548.28
2023-03-18T14:25:54.579Z,101555.34
2023-03-18T14:31:17.827Z,101573.22
2023-03-18T14:36:16.780Z,101577.69
2023-03-18T14:41:22.677Z,101585.41
2023-03-18T14:46:31.511Z,101581.97
2023-03-18T14:51:32.918Z,101588.53
2023-03-18T14:56:42.733Z,101600.16
2023-03-18T15:01:46.011Z,101600.31
2023-03-18T15:06:45.659Z,101590.88
2023-03-18T15:11:47.928Z,101606.72
2023-03-18T15:16:50.947Z,101611.13
2023-03-18T15:21:50.292Z,101615.94
2023-03-18T15:26:57.992Z,101618.72
2023-03-18T15:32:10.457Z,101616.03
2023-03-18T15:37:33.707Z,101621.59
2023-03-18T15:42:34.771Z,101622.72
2023-03-18T15:47:34.700Z,101615.03
2023-03-18T15:52:36.734Z,101631.19
2023-03-18T15:57:40.328Z,101638.69
2023-03-18T16:02:39.574Z,101644.50
2023-03-18T16:07:38.731Z,101645.41
2023-03-18T16:12:41.154Z,101642.13
2023-03-18T16:17:39.953Z,101649.41
2023-03-18T16:22:39.493Z,101656.31
2023-03-18T16:27:48.542Z,101652.13
2023-03-18T16:32:49.820Z,101661.91
2023-03-18T16:37:53.643Z,101662.06
2023-03-18T16:43:08.669Z,101672.91
2023-03-18T16:48:17.483Z,101676.53
2023-03-18T16:53:27.919Z,101686.66
2023-03-18T16:58:37.818Z,101694.25
2023-03-18T17:03:46.707Z,101690.78
2023-03-18T17:08:45.472Z,101698.56
2023-03-18T17:13:45.760Z,101702.84
2023-03-18T17:18:44.593Z,101707.28
2023-03-18T17:23:43.485Z,101706.13
2023-03-18T17:28:44.850Z,101707.06
2023-03-18T17:33:45.067Z,101706.72
2023-03-18T17:38:43.937Z,101714.72
2023-03-18T17:43:43.282Z,101710.47
2023-03-18T17:48:42.240Z,101719.41
2023-03-18T17:53:45.158Z,101716.59
2023-03-18T17:58:45.768Z,101720.59
2023-03-18T18:03:45.054Z,101732.28
2023-03-18T18:08:45.198Z,101725.91
2023-03-18T18:13:44.036Z,101730.16
2023-03-18T18:18:43.000Z,101732.88
2023-03-18T18:23:42.519Z,101736.47
2023-03-18T18:28:45.270Z,101742.59
2023-03-18T18:33:45.604Z,101748.41
2023-03-18T18:38:44.405Z,101753.25
2023-03-18T18:43:44.486Z,101748.53
2023-03-18T18:48:45.145Z,101757.81
2023-03-18T18:53:44.058Z,101757.03
2023-03-18T18:58:44.298Z,101764.03
2023-03-18T19:03:43.735Z,101765.66
2023-03-18T19:08:42.566Z,101761.50
2023-03-18T19:13:42.107Z,101763.47
2023-03-18T19:18:43.311Z,101764.41
2023-03-18T19:23:42.168Z,101771.81
2023-03-18T19:29:01.355Z,101778.00
2023-03-18T19:34:02.367Z,101773.31
2023-03-18T19:39:02.710Z,101780.13
2023-03-18T19:44:05.042Z,101791.66
2023-03-18T19:49:13.773Z,101788.22
2023-03-18T19:54:24.002Z,101792.06
2023-03-18T19:59:25.124Z,101785.25
2023-03-18T20:04:27.766Z,101785.59
2023-03-18T20:09:26.639Z,101781.38
2023-03-18T20:14:27.779Z,101777.28
2023-03-18T20:19:29.915Z,101772.31
2023-03-18T20:24:30.315Z,101771.66
2023-03-18T20:29:30.345Z,101772.47
2023-03-18T20:34:30.698Z,101766.63
2023-03-18T20:39:29.893Z,101770.03
2023-03-18T20:44:28.606Z,101768.28
2023-03-18T20:49:27.718Z,101764.56
2023-03-18T20:54:30.663Z,101755.69
2023-03-18T20:59:29.366Z,101752.22
2023-03-18T21:04:28.393Z,101757.81
2023-03-18T21:09:28.860Z,101756.22
2023-03-18T21:14:27.776Z,101749.22
2023-03-18T21:19:26.675Z,101754.50
2023-03-18T21:24:29.435Z,101758.03
2023-03-18T21:29:28.181Z,101749.47
2023-03-18T21:34:26.979Z,101757.78
2023-03-18T21:39:25.786Z,101750.19
2023-03-18T21:44:26.025Z,101746.56
2023-03-18T21:49:24.936Z,101738.00
2023-03-18T21:54:25.870Z,101740.56
2023-03-18T21:59:27.155Z,101747.38
2023-03-18T22:04:26.027Z,101733.59
2023-03-18T22:09:26.660Z,101737.06
2023-03-18T22:14:26.778Z,101734.44
2023-03-18T22:19:25.553Z,101733.44
2023-03-18T22:24:24.433Z,101738.63
2023-03-18T22:29:24.365Z,101743.09
2023-03-18T22:34:25.162Z,101744.31
2023-03-18T22:39:23.895Z,101738.09
2023-03-18T22:44:25.343Z,101741.75
2023-03-18T22:49:25.474Z,101738.84
2023-03-18T22:54:26.375Z,101743.09
2023-03-18T22:59:25.138Z,101744.03
2023-03-18T23:04:25.789Z,101745.50
2023-03-18T23:09:25.380Z,101747.81
2023-03-18T23:14:24.627Z,101748.50
2023-03-18T23:19:23.561Z,101758.06
2023-03-18T23:24:23.711Z,101749.22
2023-03-18T23:29:22.419Z,101749.03
2023-03-18T23:34:21.096Z,101744.47
2023-03-18T23:39:19.912Z,101742.66
2023-03-18T23:44:20.023Z,101738.22
2023-03-18T23:49:19.239Z,101732.81
2023-03-18T23:54:18.084Z,101732.88
2023-03-18T23:59:16.889Z,101724.28
